Leo Sun — D5EP6 — position and weather

sailwx.info

Track history (hours):
 
Tides and Currents Weather Stations Pressure Air Temp Water Temp Dewpoint Dewpoint Depression Visibility Wind Speed Wind Dir Waves Ship Positions

Leo Sun

Last reported at 2018-May-16 06:54 UTC. Time now 2018-May-21 22:39 UTC.
Position N 38°55' E 003°39'.

Length 244 m; draft 8 m.

Type: Tanker. MMSI: 636016127.

Date/timePositionNaut miles runAvg speedWind from/ knotsBaromVisibWave heightAir tempDewpointWater temp
2018-May-16 06:54N 38°55' E 003°39'512.3
2018-May-16 06:29N 38°56' E 003°33'611.4
2018-May-16 05:58N 38°56' E 003°25'611.2
2018-May-16 05:24N 38°57' E 003°17'411.1
2018-May-16 05:00N 38°57' E 003°11'511.1
2018-May-16 04:30N 38°58' E 003°04'611.1
2018-May-16 04:00N 38°58' E 002°57'511.1
2018-May-16 03:30N 38°59' E 002°50'611.0
2018-May-16 03:00N 38°60' E 002°43'611.0
2018-May-16 02:30N 39°00' E 002°36'611.2
2018-May-16 02:00N 39°01' E 002°29'510.8
2018-May-16 01:30N 39°05' E 002°24'611.4
2018-May-16 00:58N 39°09' E 002°19'611.5
2018-May-16 00:29N 39°14' E 002°14'  
Track history (hours):
 
Tides and Currents Weather Stations Pressure Air Temp Water Temp Dewpoint Dewpoint Depression Visibility Wind Speed Wind Dir Waves Ship Positions

Leo Sun

Last reported at 2018-May-16 06:54 UTC. Time now 2018-May-21 22:39 UTC.
Position N 38°55' E 003°39'.

Length 244 m; draft 8 m.

Type: Tanker. MMSI: 636016127.

Date/timePositionNaut miles runAvg speedWind from/ knotsBaromVisibWave heightAir tempDewpointWater temp
2018-May-16 06:54N 38°55' E 003°39'512.3
2018-May-16 06:29N 38°56' E 003°33'611.4
2018-May-16 05:58N 38°56' E 003°25'611.2
2018-May-16 05:24N 38°57' E 003°17'411.1
2018-May-16 05:00N 38°57' E 003°11'511.1
2018-May-16 04:30N 38°58' E 003°04'611.1
2018-May-16 04:00N 38°58' E 002°57'511.1
2018-May-16 03:30N 38°59' E 002°50'611.0
2018-May-16 03:00N 38°60' E 002°43'611.0
2018-May-16 02:30N 39°00' E 002°36'611.2
2018-May-16 02:00N 39°01' E 002°29'510.8
2018-May-16 01:30N 39°05' E 002°24'611.4
2018-May-16 00:58N 39°09' E 002°19'611.5
2018-May-16 00:29N 39°14' E 002°14'  

Dump ship's entire track history